MXA384 MGGT-MMMX
Flight info
| Callsign | MXA384 |
|---|---|
| Flight time | 2h 5m |
| Altitude | 38000 |
| Route | KALPA3A KALPA UA552 TGZ UJ9 IZT UT157 LARLO LARLO4A |
| Aircraft | A20N/M-SDE2E3FGHIRWXY/LB1 |
Departure
| Time | 2026-04-17 02:02 |
|---|---|
| Airport | La Aurora International Airport (MGGT) |
Arrival
| Time | 2026-04-17 04:07 |
|---|---|
| Airport | Mexico City Benito Juárez International Airport (MMMX) |
| Time | Latitude | Longitude | Altitude | Speed | Heading |
|---|---|---|---|---|---|
| 2026-04-17 01:24 | 14.58936 | -90.52878 | 4929 ft | 0 kts | 287° |
| 2026-04-17 01:50 | 14.58935 | -90.52876 | 4928 ft | 1 kts | 287° |
| 2026-04-17 01:50 | 14.58933 | -90.52868 | 4929 ft | 1 kts | 287° |
| 2026-04-17 01:50 | 14.58931 | -90.52861 | 4929 ft | 1 kts | 287° |
| 2026-04-17 01:51 | 14.58928 | -90.52853 | 4929 ft | 1 kts | 287° |
| 2026-04-17 01:51 | 14.58926 | -90.52846 | 4929 ft | 1 kts | 287° |
| 2026-04-17 01:51 | 14.58924 | -90.52838 | 4929 ft | 1 kts | 287° |
| 2026-04-17 01:51 | 14.58922 | -90.52831 | 4928 ft | 1 kts | 287° |
| 2026-04-17 01:52 | 14.58919 | -90.52823 | 4929 ft | 1 kts | 287° |
| 2026-04-17 01:52 | 14.58917 | -90.52816 | 4929 ft | 1 kts | 282° |
| 2026-04-17 01:52 | 14.58916 | -90.52808 | 4929 ft | 1 kts | 268° |
| 2026-04-17 01:52 | 14.58916 | -90.52800 | 4929 ft | 1 kts | 253° |
| 2026-04-17 01:53 | 14.58919 | -90.52792 | 4929 ft | 1 kts | 238° |
| 2026-04-17 01:53 | 14.58923 | -90.52786 | 4929 ft | 1 kts | 224° |
| 2026-04-17 01:53 | 14.58929 | -90.52781 | 4929 ft | 1 kts | 209° |
| 2026-04-17 01:53 | 14.58936 | -90.52777 | 4929 ft | 1 kts | 194° |
| 2026-04-17 01:54 | 14.58941 | -90.52776 | 4929 ft | 0 kts | 184° |
| 2026-04-17 01:56 | 14.58933 | -90.52776 | 4929 ft | 3 kts | 184° |
| 2026-04-17 01:56 | 14.58904 | -90.52779 | 4929 ft | 6 kts | 188° |
| 2026-04-17 01:56 | 14.58854 | -90.52775 | 4929 ft | 9 kts | 162° |
| 2026-04-17 01:57 | 14.58797 | -90.52731 | 4929 ft | 12 kts | 123° |
| 2026-04-17 01:57 | 14.58730 | -90.52688 | 4926 ft | 15 kts | 190° |
| 2026-04-17 01:57 | 14.58615 | -90.52724 | 4922 ft | 20 kts | 198° |
| 2026-04-17 01:57 | 14.58517 | -90.52758 | 4919 ft | 12 kts | 198° |
| 2026-04-17 01:58 | 14.58427 | -90.52787 | 4920 ft | 15 kts | 197° |
| 2026-04-17 01:58 | 14.58319 | -90.52821 | 4918 ft | 18 kts | 197° |
| 2026-04-17 01:58 | 14.58191 | -90.52862 | 4917 ft | 17 kts | 198° |
| 2026-04-17 01:58 | 14.58074 | -90.52901 | 4913 ft | 19 kts | 197° |
| 2026-04-17 01:59 | 14.57943 | -90.52943 | 4897 ft | 18 kts | 197° |
| 2026-04-17 01:59 | 14.57821 | -90.52982 | 4895 ft | 19 kts | 197° |
| 2026-04-17 01:59 | 14.57695 | -90.53022 | 4889 ft | 19 kts | 197° |
| 2026-04-17 01:59 | 14.57571 | -90.53063 | 4887 ft | 18 kts | 198° |
| 2026-04-17 02:00 | 14.57444 | -90.53104 | 4880 ft | 19 kts | 197° |
| 2026-04-17 02:00 | 14.57324 | -90.53143 | 4883 ft | 17 kts | 197° |
| 2026-04-17 02:00 | 14.57211 | -90.53179 | 4883 ft | 16 kts | 197° |
| 2026-04-17 02:00 | 14.57100 | -90.53208 | 4881 ft | 15 kts | 173° |
| 2026-04-17 02:01 | 14.57103 | -90.53145 | 4883 ft | 10 kts | 24° |
| 2026-04-17 02:01 | 14.57139 | -90.53134 | 4882 ft | 18 kts | 17° |
| 2026-04-17 02:01 | 14.57504 | -90.53017 | 4890 ft | 89 kts | 18° |
| 2026-04-17 02:01 | 14.58279 | -90.52766 | 4917 ft | 142 kts | 18° |
| 2026-04-17 02:02 | 14.59268 | -90.52443 | 5437 ft | 148 kts | 18° |
| 2026-04-17 02:02 | 14.60260 | -90.52125 | 6184 ft | 150 kts | 18° |
| 2026-04-17 02:02 | 14.61258 | -90.51803 | 6866 ft | 154 kts | 18° |
| 2026-04-17 02:02 | 14.62371 | -90.51447 | 7175 ft | 182 kts | 18° |
| 2026-04-17 02:03 | 14.63657 | -90.51039 | 7531 ft | 203 kts | 18° |
| 2026-04-17 02:03 | 14.65079 | -90.50585 | 7913 ft | 225 kts | 18° |
| 2026-04-17 02:03 | 14.66644 | -90.50079 | 8196 ft | 251 kts | 18° |
| 2026-04-17 02:03 | 14.68384 | -90.49516 | 8587 ft | 274 kts | 18° |
| 2026-04-17 02:04 | 14.70261 | -90.48926 | 9139 ft | 288 kts | 13° |
| 2026-04-17 02:04 | 14.72266 | -90.48889 | 9990 ft | 292 kts | 349° |
| 2026-04-17 02:04 | 14.74182 | -90.49703 | 10556 ft | 309 kts | 327° |
| 2026-04-17 02:04 | 14.75749 | -90.51338 | 10847 ft | 335 kts | 305° |
| 2026-04-17 02:05 | 14.76824 | -90.53545 | 11312 ft | 350 kts | 293° |
| 2026-04-17 02:05 | 14.77701 | -90.55881 | 12098 ft | 354 kts | 292° |
| 2026-04-17 02:05 | 14.78609 | -90.58253 | 12923 ft | 356 kts | 294° |
| 2026-04-17 02:05 | 14.79593 | -90.60634 | 13647 ft | 361 kts | 296° |
| 2026-04-17 02:06 | 14.80644 | -90.63013 | 14366 ft | 366 kts | 297° |
| 2026-04-17 02:06 | 14.81735 | -90.65408 | 15117 ft | 370 kts | 297° |
| 2026-04-17 02:06 | 14.82852 | -90.67826 | 15809 ft | 375 kts | 297° |
| 2026-04-17 02:06 | 14.83983 | -90.70270 | 16484 ft | 379 kts | 297° |
| 2026-04-17 02:07 | 14.85127 | -90.72745 | 17131 ft | 384 kts | 297° |
| 2026-04-17 02:07 | 14.86284 | -90.75251 | 17751 ft | 388 kts | 297° |
| 2026-04-17 02:07 | 14.87454 | -90.77787 | 18331 ft | 392 kts | 297° |
| 2026-04-17 02:07 | 14.88617 | -90.80309 | 18934 ft | 395 kts | 298° |
| 2026-04-17 02:08 | 14.89804 | -90.82886 | 19528 ft | 399 kts | 298° |
| 2026-04-17 02:08 | 14.91004 | -90.85492 | 20101 ft | 402 kts | 298° |
| 2026-04-17 02:08 | 14.92209 | -90.88113 | 20661 ft | 406 kts | 298° |
| 2026-04-17 02:08 | 14.93427 | -90.90759 | 21186 ft | 409 kts | 298° |
| 2026-04-17 02:09 | 14.94654 | -90.93425 | 21675 ft | 412 kts | 298° |
| 2026-04-17 02:09 | 14.95891 | -90.96112 | 22178 ft | 415 kts | 298° |
| 2026-04-17 02:09 | 14.97139 | -90.98825 | 22671 ft | 419 kts | 298° |
| 2026-04-17 02:09 | 14.98394 | -91.01557 | 23161 ft | 421 kts | 298° |
| 2026-04-17 02:10 | 14.99638 | -91.04266 | 23629 ft | 424 kts | 298° |
| 2026-04-17 02:10 | 15.01025 | -91.06966 | 24066 ft | 425 kts | 304° |
| 2026-04-17 02:10 | 15.02717 | -91.09468 | 24513 ft | 425 kts | 311° |
| 2026-04-17 02:10 | 15.04617 | -91.11812 | 24930 ft | 427 kts | 313° |
| 2026-04-17 02:11 | 15.06534 | -91.14174 | 25335 ft | 430 kts | 312° |
| 2026-04-17 02:11 | 15.08457 | -91.16554 | 25743 ft | 432 kts | 312° |
| 2026-04-17 02:11 | 15.10396 | -91.18957 | 26125 ft | 435 kts | 312° |
| 2026-04-17 02:11 | 15.12340 | -91.21368 | 26489 ft | 438 kts | 312° |
| 2026-04-17 02:12 | 15.14297 | -91.23794 | 26887 ft | 440 kts | 312° |
| 2026-04-17 02:12 | 15.16270 | -91.26239 | 27219 ft | 443 kts | 311° |
| 2026-04-17 02:12 | 15.18249 | -91.28693 | 27569 ft | 445 kts | 311° |
| 2026-04-17 02:12 | 15.20241 | -91.31162 | 27928 ft | 447 kts | 311° |
| 2026-04-17 02:13 | 15.22242 | -91.33645 | 28247 ft | 450 kts | 311° |
| 2026-04-17 02:13 | 15.24251 | -91.36138 | 28561 ft | 452 kts | 311° |
| 2026-04-17 02:13 | 15.26274 | -91.38649 | 28866 ft | 455 kts | 311° |
| 2026-04-17 02:13 | 15.28280 | -91.41142 | 29175 ft | 457 kts | 311° |
| 2026-04-17 02:14 | 15.30320 | -91.43677 | 29502 ft | 459 kts | 311° |
| 2026-04-17 02:14 | 15.32374 | -91.46230 | 29791 ft | 462 kts | 311° |
| 2026-04-17 02:14 | 15.34441 | -91.48799 | 30086 ft | 465 kts | 310° |
| 2026-04-17 02:14 | 15.36512 | -91.51377 | 30410 ft | 466 kts | 310° |
| 2026-04-17 02:15 | 15.38589 | -91.53963 | 30751 ft | 467 kts | 310° |
| 2026-04-17 02:15 | 15.40671 | -91.56557 | 31113 ft | 468 kts | 310° |
| 2026-04-17 02:15 | 15.42753 | -91.59149 | 31558 ft | 467 kts | 310° |
| 2026-04-17 02:15 | 15.44822 | -91.61728 | 32058 ft | 464 kts | 310° |
| 2026-04-17 02:16 | 15.46874 | -91.64287 | 32577 ft | 460 kts | 310° |
| 2026-04-17 02:16 | 15.48911 | -91.66829 | 33043 ft | 457 kts | 309° |
| 2026-04-17 02:16 | 15.50936 | -91.69356 | 33490 ft | 454 kts | 309° |
| 2026-04-17 02:16 | 15.52916 | -91.71828 | 33925 ft | 451 kts | 309° |
| 2026-04-17 02:17 | 15.54917 | -91.74326 | 34314 ft | 449 kts | 309° |
| 2026-04-17 02:17 | 15.56916 | -91.76820 | 34677 ft | 447 kts | 309° |
| 2026-04-17 02:17 | 15.58901 | -91.79303 | 34967 ft | 447 kts | 309° |
| 2026-04-17 02:17 | 15.60880 | -91.81781 | 35245 ft | 446 kts | 309° |
| 2026-04-17 02:18 | 15.62861 | -91.84259 | 35536 ft | 445 kts | 309° |
| 2026-04-17 02:18 | 15.64843 | -91.86737 | 35824 ft | 445 kts | 309° |
| 2026-04-17 02:18 | 15.66818 | -91.89206 | 36108 ft | 444 kts | 309° |
| 2026-04-17 02:18 | 15.68790 | -91.91675 | 36377 ft | 444 kts | 309° |
| 2026-04-17 02:19 | 15.70764 | -91.94142 | 36633 ft | 444 kts | 309° |
| 2026-04-17 02:19 | 15.72729 | -91.96603 | 36927 ft | 442 kts | 309° |
| 2026-04-17 02:19 | 15.74686 | -91.99056 | 37287 ft | 439 kts | 309° |
| 2026-04-17 02:19 | 15.76604 | -92.01460 | 37612 ft | 436 kts | 308° |
| 2026-04-17 02:20 | 15.78542 | -92.03890 | 37874 ft | 435 kts | 308° |
| 2026-04-17 02:20 | 15.82393 | -92.08720 | 37915 ft | 434 kts | 308° |
| 2026-04-17 02:21 | 15.86236 | -92.13545 | 37917 ft | 433 kts | 308° |
| 2026-04-17 02:21 | 15.90079 | -92.18372 | 37926 ft | 433 kts | 308° |
| 2026-04-17 02:22 | 15.93897 | -92.23167 | 37921 ft | 433 kts | 308° |
| 2026-04-17 02:22 | 15.97733 | -92.27994 | 37922 ft | 433 kts | 308° |
| 2026-04-17 02:23 | 16.01566 | -92.32817 | 37921 ft | 432 kts | 308° |
| 2026-04-17 02:23 | 16.05400 | -92.37640 | 37916 ft | 432 kts | 308° |
| 2026-04-17 02:24 | 16.09228 | -92.42463 | 37930 ft | 431 kts | 308° |
| 2026-04-17 02:24 | 16.13057 | -92.47293 | 37943 ft | 436 kts | 308° |
| 2026-04-17 02:25 | 16.16958 | -92.52218 | 37948 ft | 446 kts | 308° |
| 2026-04-17 02:25 | 16.20909 | -92.57208 | 37943 ft | 451 kts | 308° |
| 2026-04-17 02:26 | 16.24891 | -92.62237 | 37938 ft | 450 kts | 308° |
| 2026-04-17 02:26 | 16.28761 | -92.67347 | 37955 ft | 448 kts | 300° |
| 2026-04-17 02:27 | 16.31256 | -92.73304 | 37947 ft | 451 kts | 290° |
| 2026-04-17 02:27 | 16.33492 | -92.79440 | 37957 ft | 453 kts | 290° |
| 2026-04-17 02:28 | 16.35763 | -92.85518 | 37959 ft | 453 kts | 291° |
| 2026-04-17 02:28 | 16.38070 | -92.91629 | 37956 ft | 453 kts | 291° |
| 2026-04-17 02:29 | 16.40380 | -92.97749 | 37965 ft | 455 kts | 291° |
| 2026-04-17 02:29 | 16.42693 | -93.03880 | 37962 ft | 454 kts | 291° |
| 2026-04-17 02:30 | 16.45003 | -93.10010 | 37968 ft | 454 kts | 291° |
| 2026-04-17 02:30 | 16.46919 | -93.15102 | 37969 ft | 454 kts | 291° |
| 2026-04-17 02:31 | 16.49226 | -93.21240 | 37964 ft | 454 kts | 291° |
| 2026-04-17 02:31 | 16.51530 | -93.27373 | 37967 ft | 454 kts | 291° |
| 2026-04-17 02:32 | 16.53769 | -93.33531 | 37978 ft | 454 kts | 286° |
| 2026-04-17 02:32 | 16.55005 | -93.39975 | 37976 ft | 454 kts | 275° |
| 2026-04-17 02:33 | 16.54984 | -93.46557 | 37974 ft | 455 kts | 267° |
| 2026-04-17 02:33 | 16.54658 | -93.53106 | 37975 ft | 455 kts | 267° |
| 2026-04-17 02:34 | 16.54338 | -93.59695 | 37975 ft | 455 kts | 267° |
| 2026-04-17 02:34 | 16.54013 | -93.66281 | 37975 ft | 455 kts | 267° |
| 2026-04-17 02:35 | 16.53685 | -93.72870 | 37975 ft | 455 kts | 267° |
| 2026-04-17 02:35 | 16.53189 | -93.82700 | 37973 ft | 455 kts | 267° |
| 2026-04-17 02:36 | 16.52853 | -93.89282 | 37965 ft | 455 kts | 267° |
| 2026-04-17 02:36 | 16.52516 | -93.95870 | 37965 ft | 455 kts | 267° |
| 2026-04-17 02:37 | 16.52179 | -94.02450 | 37966 ft | 455 kts | 267° |
| 2026-04-17 02:37 | 16.51839 | -94.09032 | 37965 ft | 455 kts | 267° |
| 2026-04-17 02:38 | 16.51495 | -94.15615 | 37965 ft | 455 kts | 266° |
| 2026-04-17 02:38 | 16.51152 | -94.22207 | 37965 ft | 455 kts | 266° |
| 2026-04-17 02:39 | 16.50809 | -94.28741 | 37961 ft | 454 kts | 266° |
| 2026-04-17 02:39 | 16.50460 | -94.35302 | 37965 ft | 454 kts | 266° |
| 2026-04-17 02:40 | 16.50109 | -94.41880 | 37961 ft | 454 kts | 266° |
| 2026-04-17 02:40 | 16.49758 | -94.48449 | 37957 ft | 454 kts | 266° |
| 2026-04-17 02:41 | 16.49404 | -94.55018 | 37966 ft | 453 kts | 266° |
| 2026-04-17 02:41 | 16.49050 | -94.61528 | 37991 ft | 453 kts | 266° |
| 2026-04-17 02:42 | 16.48693 | -94.68094 | 38000 ft | 453 kts | 266° |
| 2026-04-17 02:42 | 16.48334 | -94.74649 | 37999 ft | 453 kts | 266° |
| 2026-04-17 02:43 | 16.47974 | -94.81193 | 37999 ft | 452 kts | 266° |
| 2026-04-17 02:43 | 16.47613 | -94.87698 | 38005 ft | 452 kts | 266° |
| 2026-04-17 02:44 | 16.47249 | -94.94237 | 38008 ft | 452 kts | 266° |
| 2026-04-17 02:44 | 16.46883 | -95.00774 | 38008 ft | 451 kts | 266° |
| 2026-04-17 02:45 | 16.46936 | -95.07306 | 38008 ft | 453 kts | 277° |
| 2026-04-17 02:45 | 16.48728 | -95.13619 | 38009 ft | 457 kts | 293° |
| 2026-04-17 02:46 | 16.51839 | -95.19434 | 38008 ft | 459 kts | 297° |
| 2026-04-17 02:46 | 16.54988 | -95.25181 | 38005 ft | 459 kts | 297° |
| 2026-04-17 02:47 | 16.58149 | -95.30965 | 38015 ft | 459 kts | 297° |
| 2026-04-17 02:47 | 16.61308 | -95.36744 | 38016 ft | 459 kts | 297° |
| 2026-04-17 02:48 | 16.64469 | -95.42531 | 38020 ft | 459 kts | 297° |
| 2026-04-17 02:48 | 16.67629 | -95.48320 | 38031 ft | 459 kts | 297° |
| 2026-04-17 02:49 | 16.70783 | -95.54105 | 38032 ft | 458 kts | 297° |
| 2026-04-17 02:49 | 16.73943 | -95.59908 | 38037 ft | 459 kts | 297° |
| 2026-04-17 02:50 | 16.77098 | -95.65702 | 38044 ft | 459 kts | 297° |
| 2026-04-17 02:50 | 16.80248 | -95.71492 | 38044 ft | 458 kts | 297° |
| 2026-04-17 02:51 | 16.83377 | -95.77248 | 38055 ft | 459 kts | 297° |
| 2026-04-17 02:51 | 16.86519 | -95.83037 | 38065 ft | 459 kts | 297° |
| 2026-04-17 02:52 | 16.89665 | -95.88841 | 38072 ft | 458 kts | 297° |
| 2026-04-17 02:52 | 16.92801 | -95.94630 | 38082 ft | 458 kts | 297° |
| 2026-04-17 02:53 | 16.95936 | -96.00419 | 38089 ft | 457 kts | 297° |
| 2026-04-17 02:53 | 16.99052 | -96.06179 | 38115 ft | 458 kts | 296° |
| 2026-04-17 02:54 | 17.02181 | -96.11971 | 38127 ft | 457 kts | 296° |
| 2026-04-17 02:54 | 17.05294 | -96.17736 | 38143 ft | 449 kts | 296° |
| 2026-04-17 02:55 | 17.06807 | -96.20533 | 38141 ft | 434 kts | 296° |
| 2026-04-17 02:55 | 17.08276 | -96.23251 | 38153 ft | 427 kts | 296° |
| 2026-04-17 02:55 | 17.11223 | -96.28730 | 38162 ft | 435 kts | 296° |
| 2026-04-17 02:56 | 17.14186 | -96.34234 | 38137 ft | 433 kts | 296° |
| 2026-04-17 02:56 | 17.17140 | -96.39721 | 38143 ft | 434 kts | 296° |
| 2026-04-17 02:57 | 17.20097 | -96.45221 | 38151 ft | 433 kts | 296° |
| 2026-04-17 02:57 | 17.23050 | -96.50711 | 38155 ft | 433 kts | 296° |
| 2026-04-17 02:58 | 17.25985 | -96.56174 | 38159 ft | 433 kts | 296° |
| 2026-04-17 02:58 | 17.28939 | -96.61675 | 38162 ft | 434 kts | 296° |
| 2026-04-17 02:59 | 17.31895 | -96.67188 | 38161 ft | 433 kts | 296° |
| 2026-04-17 02:59 | 17.34840 | -96.72685 | 38151 ft | 432 kts | 296° |
| 2026-04-17 03:00 | 17.37780 | -96.78181 | 38155 ft | 432 kts | 296° |
| 2026-04-17 03:00 | 17.40704 | -96.83647 | 38141 ft | 433 kts | 296° |
| 2026-04-17 03:01 | 17.43647 | -96.89146 | 38152 ft | 432 kts | 296° |
| 2026-04-17 03:01 | 17.46580 | -96.94635 | 38133 ft | 432 kts | 296° |
| 2026-04-17 03:02 | 17.49516 | -97.00140 | 38140 ft | 433 kts | 296° |
| 2026-04-17 03:02 | 17.52454 | -97.05653 | 38137 ft | 434 kts | 295° |
| 2026-04-17 03:03 | 17.55401 | -97.11183 | 38150 ft | 434 kts | 295° |
| 2026-04-17 03:03 | 17.58406 | -97.16680 | 38152 ft | 436 kts | 299° |
| 2026-04-17 03:04 | 17.62139 | -97.21726 | 38148 ft | 441 kts | 309° |
| 2026-04-17 03:04 | 17.66511 | -97.26212 | 38146 ft | 442 kts | 312° |
| 2026-04-17 03:05 | 17.70950 | -97.30696 | 38142 ft | 443 kts | 312° |
| 2026-04-17 03:05 | 17.75390 | -97.35182 | 38153 ft | 443 kts | 312° |
| 2026-04-17 03:06 | 17.79831 | -97.39668 | 38135 ft | 443 kts | 312° |
| 2026-04-17 03:06 | 17.84281 | -97.44165 | 38140 ft | 443 kts | 312° |
| 2026-04-17 03:07 | 17.88693 | -97.48629 | 38152 ft | 443 kts | 312° |
| 2026-04-17 03:07 | 17.93131 | -97.53121 | 38148 ft | 443 kts | 312° |
| 2026-04-17 03:08 | 17.97566 | -97.57615 | 38146 ft | 443 kts | 312° |
| 2026-04-17 03:08 | 18.02003 | -97.62114 | 38161 ft | 443 kts | 312° |
| 2026-04-17 03:09 | 18.06432 | -97.66609 | 38167 ft | 443 kts | 312° |
| 2026-04-17 03:09 | 18.10862 | -97.71107 | 38167 ft | 442 kts | 312° |
| 2026-04-17 03:10 | 18.15288 | -97.75604 | 38167 ft | 442 kts | 312° |
| 2026-04-17 03:10 | 18.19705 | -97.80096 | 38175 ft | 442 kts | 312° |
| 2026-04-17 03:11 | 18.24121 | -97.84590 | 38183 ft | 442 kts | 312° |
| 2026-04-17 03:11 | 18.28508 | -97.89058 | 37933 ft | 442 kts | 312° |
| 2026-04-17 03:12 | 18.30714 | -97.91305 | 37689 ft | 440 kts | 312° |
| 2026-04-17 03:12 | 18.32914 | -97.93546 | 37434 ft | 440 kts | 312° |
| 2026-04-17 03:12 | 18.35111 | -97.95784 | 37194 ft | 439 kts | 312° |
| 2026-04-17 03:12 | 18.37303 | -97.98019 | 36941 ft | 436 kts | 312° |
| 2026-04-17 03:13 | 18.39473 | -98.00234 | 36630 ft | 435 kts | 312° |
| 2026-04-17 03:13 | 18.41656 | -98.02464 | 35978 ft | 439 kts | 312° |
| 2026-04-17 03:13 | 18.43869 | -98.04727 | 35048 ft | 446 kts | 312° |
| 2026-04-17 03:13 | 18.46094 | -98.07001 | 34298 ft | 446 kts | 312° |
| 2026-04-17 03:14 | 18.48331 | -98.09288 | 33461 ft | 449 kts | 312° |
| 2026-04-17 03:14 | 18.50579 | -98.11587 | 32581 ft | 452 kts | 313° |
| 2026-04-17 03:14 | 18.52833 | -98.13894 | 31762 ft | 453 kts | 313° |
| 2026-04-17 03:14 | 18.55115 | -98.16230 | 30886 ft | 456 kts | 314° |
| 2026-04-17 03:15 | 18.57360 | -98.18530 | 30176 ft | 454 kts | 314° |
| 2026-04-17 03:15 | 18.59609 | -98.20834 | 29595 ft | 449 kts | 314° |
| 2026-04-17 03:15 | 18.61840 | -98.23119 | 28982 ft | 445 kts | 314° |
| 2026-04-17 03:15 | 18.64052 | -98.25386 | 28355 ft | 441 kts | 314° |
| 2026-04-17 03:16 | 18.66239 | -98.27628 | 27728 ft | 437 kts | 314° |
| 2026-04-17 03:16 | 18.68406 | -98.29852 | 27126 ft | 433 kts | 314° |
| 2026-04-17 03:16 | 18.70322 | -98.32269 | 26551 ft | 426 kts | 302° |
| 2026-04-17 03:16 | 18.71704 | -98.35013 | 26319 ft | 426 kts | 291° |
| 2026-04-17 03:17 | 18.72559 | -98.38028 | 26278 ft | 430 kts | 280° |
| 2026-04-17 03:17 | 18.73124 | -98.41128 | 26247 ft | 430 kts | 280° |
| 2026-04-17 03:17 | 18.73694 | -98.44222 | 26229 ft | 429 kts | 280° |
| 2026-04-17 03:17 | 18.74264 | -98.47315 | 26227 ft | 429 kts | 280° |
| 2026-04-17 03:18 | 18.74637 | -98.49355 | 26220 ft | 423 kts | 279° |
| 2026-04-17 03:18 | 18.74712 | -98.53365 | 26215 ft | 398 kts | 259° |
| 2026-04-17 03:18 | 18.73882 | -98.56068 | 26208 ft | 380 kts | 242° |
| 2026-04-17 03:18 | 18.72961 | -98.57605 | 26204 ft | 369 kts | 234° |
| 2026-04-17 03:19 | 18.71442 | -98.59770 | 26198 ft | 369 kts | 233° |
| 2026-04-17 03:19 | 18.69384 | -98.62679 | 26185 ft | 375 kts | 234° |
| 2026-04-17 03:19 | 18.67827 | -98.64880 | 26172 ft | 373 kts | 233° |
| 2026-04-17 03:19 | 18.66776 | -98.66365 | 26166 ft | 373 kts | 233° |
| 2026-04-17 03:20 | 18.65222 | -98.68563 | 26157 ft | 373 kts | 234° |
| 2026-04-17 03:20 | 18.63689 | -98.70732 | 26155 ft | 373 kts | 234° |
| 2026-04-17 03:20 | 18.62135 | -98.72930 | 26140 ft | 373 kts | 234° |
| 2026-04-17 03:20 | 18.60586 | -98.75123 | 26136 ft | 373 kts | 234° |
| 2026-04-17 03:21 | 18.59035 | -98.77320 | 26128 ft | 373 kts | 234° |
| 2026-04-17 03:21 | 18.57488 | -98.79508 | 26119 ft | 372 kts | 234° |
| 2026-04-17 03:21 | 18.55940 | -98.81698 | 26119 ft | 372 kts | 234° |
| 2026-04-17 03:21 | 18.54417 | -98.83906 | 26104 ft | 372 kts | 239° |
| 2026-04-17 03:22 | 18.53433 | -98.86404 | 26101 ft | 371 kts | 258° |
| 2026-04-17 03:22 | 18.53269 | -98.89116 | 26106 ft | 372 kts | 273° |
| 2026-04-17 03:22 | 18.53454 | -98.91840 | 26091 ft | 373 kts | 274° |
| 2026-04-17 03:22 | 18.53654 | -98.94564 | 26083 ft | 372 kts | 274° |
| 2026-04-17 03:23 | 18.53854 | -98.97280 | 26082 ft | 372 kts | 274° |
| 2026-04-17 03:23 | 18.54055 | -98.99998 | 26075 ft | 372 kts | 274° |
| 2026-04-17 03:23 | 18.54257 | -99.02718 | 26072 ft | 372 kts | 274° |
| 2026-04-17 03:23 | 18.54461 | -99.05441 | 26061 ft | 372 kts | 274° |
| 2026-04-17 03:24 | 18.54665 | -99.08161 | 26067 ft | 372 kts | 274° |
| 2026-04-17 03:24 | 18.54870 | -99.10879 | 26066 ft | 372 kts | 274° |
| 2026-04-17 03:24 | 18.55074 | -99.13562 | 26063 ft | 372 kts | 274° |
| 2026-04-17 03:24 | 18.55280 | -99.16284 | 26064 ft | 373 kts | 274° |
| 2026-04-17 03:25 | 18.55489 | -99.19004 | 26058 ft | 372 kts | 274° |
| 2026-04-17 03:25 | 18.55699 | -99.21730 | 26048 ft | 373 kts | 274° |
| 2026-04-17 03:25 | 18.55910 | -99.24452 | 26058 ft | 373 kts | 274° |
| 2026-04-17 03:25 | 18.56121 | -99.27178 | 26063 ft | 372 kts | 274° |
| 2026-04-17 03:26 | 18.56334 | -99.29901 | 26073 ft | 372 kts | 274° |
| 2026-04-17 03:26 | 18.56547 | -99.32619 | 26074 ft | 373 kts | 274° |
| 2026-04-17 03:26 | 18.56760 | -99.35339 | 26072 ft | 372 kts | 274° |
| 2026-04-17 03:26 | 18.56977 | -99.38059 | 26072 ft | 373 kts | 275° |
| 2026-04-17 03:27 | 18.57617 | -99.40698 | 26075 ft | 374 kts | 294° |
| 2026-04-17 03:27 | 18.59055 | -99.42986 | 26083 ft | 377 kts | 313° |
| 2026-04-17 03:27 | 18.61110 | -99.44648 | 26082 ft | 380 kts | 331° |
| 2026-04-17 03:27 | 18.63623 | -99.45542 | 26082 ft | 384 kts | 350° |
| 2026-04-17 03:28 | 18.66298 | -99.45535 | 26082 ft | 388 kts | 9° |
| 2026-04-17 03:28 | 18.68850 | -99.44622 | 26074 ft | 390 kts | 28° |
| 2026-04-17 03:28 | 18.71002 | -99.42891 | 26073 ft | 392 kts | 47° |
| 2026-04-17 03:28 | 18.72675 | -99.40616 | 26063 ft | 393 kts | 54° |
| 2026-04-17 03:29 | 18.74266 | -99.38273 | 26055 ft | 392 kts | 54° |
| 2026-04-17 03:29 | 18.75852 | -99.35931 | 26056 ft | 392 kts | 54° |
| 2026-04-17 03:29 | 18.77439 | -99.33589 | 26046 ft | 392 kts | 54° |
| 2026-04-17 03:29 | 18.79025 | -99.31247 | 26041 ft | 392 kts | 54° |
| 2026-04-17 03:30 | 18.80614 | -99.28902 | 26033 ft | 392 kts | 54° |
| 2026-04-17 03:30 | 18.82199 | -99.26562 | 26029 ft | 392 kts | 54° |
| 2026-04-17 03:30 | 18.83787 | -99.24218 | 26027 ft | 392 kts | 54° |
| 2026-04-17 03:30 | 18.85354 | -99.21903 | 26021 ft | 392 kts | 54° |
| 2026-04-17 03:31 | 18.86943 | -99.19557 | 26017 ft | 392 kts | 54° |
| 2026-04-17 03:31 | 18.88528 | -99.17213 | 26026 ft | 392 kts | 54° |
| 2026-04-17 03:31 | 18.90104 | -99.14882 | 26024 ft | 384 kts | 54° |
| 2026-04-17 03:31 | 18.91625 | -99.12632 | 26022 ft | 368 kts | 54° |
| 2026-04-17 03:32 | 18.93080 | -99.10479 | 26034 ft | 356 kts | 54° |
| 2026-04-17 03:32 | 18.94528 | -99.08331 | 26059 ft | 362 kts | 54° |
| 2026-04-17 03:32 | 18.96041 | -99.06190 | 26011 ft | 362 kts | 46° |
| 2026-04-17 03:32 | 18.97989 | -99.04571 | 25658 ft | 354 kts | 24° |
| 2026-04-17 03:33 | 19.00270 | -99.03826 | 25435 ft | 338 kts | 7° |
| 2026-04-17 03:33 | 19.02578 | -99.03517 | 24903 ft | 333 kts | 4° |
| 2026-04-17 03:33 | 19.04880 | -99.03263 | 24307 ft | 330 kts | 5° |
| 2026-04-17 03:33 | 19.07118 | -99.02977 | 23757 ft | 327 kts | 6° |
| 2026-04-17 03:34 | 19.09360 | -99.02642 | 23206 ft | 323 kts | 7° |
| 2026-04-17 03:34 | 19.11571 | -99.02276 | 22669 ft | 320 kts | 7° |
| 2026-04-17 03:34 | 19.13757 | -99.01899 | 22109 ft | 316 kts | 8° |
| 2026-04-17 03:34 | 19.15919 | -99.01547 | 21569 ft | 312 kts | 1° |
| 2026-04-17 03:35 | 19.18056 | -99.01697 | 21100 ft | 304 kts | 357° |
| 2026-04-17 03:35 | 19.20131 | -99.01347 | 20968 ft | 310 kts | 22° |
| 2026-04-17 03:35 | 19.21944 | -99.00084 | 20938 ft | 315 kts | 46° |
| 2026-04-17 03:35 | 19.23125 | -98.98157 | 20945 ft | 314 kts | 70° |
| 2026-04-17 03:36 | 19.22929 | -98.93643 | 20945 ft | 317 kts | 118° |
| 2026-04-17 03:36 | 19.21582 | -98.91818 | 20943 ft | 316 kts | 142° |
| 2026-04-17 03:36 | 19.19667 | -98.90712 | 20940 ft | 315 kts | 162° |
| 2026-04-17 03:37 | 19.17570 | -98.90010 | 21018 ft | 317 kts | 164° |
| 2026-04-17 03:37 | 19.15447 | -98.89323 | 21188 ft | 319 kts | 164° |
| 2026-04-17 03:37 | 19.13337 | -98.88640 | 21215 ft | 316 kts | 164° |
| 2026-04-17 03:37 | 19.11268 | -98.87969 | 21211 ft | 315 kts | 164° |
| 2026-04-17 03:38 | 19.09168 | -98.87290 | 21203 ft | 316 kts | 164° |
| 2026-04-17 03:38 | 19.07062 | -98.86607 | 21201 ft | 316 kts | 164° |
| 2026-04-17 03:38 | 19.04958 | -98.85926 | 21193 ft | 316 kts | 164° |
| 2026-04-17 03:38 | 19.02855 | -98.85245 | 21191 ft | 316 kts | 164° |
| 2026-04-17 03:39 | 19.00747 | -98.84563 | 21185 ft | 316 kts | 164° |
| 2026-04-17 03:39 | 18.98640 | -98.83883 | 21183 ft | 316 kts | 164° |
| 2026-04-17 03:39 | 18.96535 | -98.83204 | 21184 ft | 316 kts | 164° |
| 2026-04-17 03:39 | 18.94430 | -98.82524 | 21180 ft | 316 kts | 164° |
| 2026-04-17 03:40 | 18.92327 | -98.81845 | 21175 ft | 316 kts | 164° |
| 2026-04-17 03:40 | 18.90225 | -98.81166 | 21165 ft | 316 kts | 164° |
| 2026-04-17 03:40 | 18.88120 | -98.80486 | 21134 ft | 317 kts | 164° |
| 2026-04-17 03:40 | 18.86042 | -98.79816 | 21130 ft | 316 kts | 164° |
| 2026-04-17 03:41 | 18.83933 | -98.79136 | 21130 ft | 316 kts | 164° |
| 2026-04-17 03:41 | 18.81827 | -98.78457 | 21137 ft | 316 kts | 164° |
| 2026-04-17 03:41 | 18.79721 | -98.77780 | 21137 ft | 316 kts | 164° |
| 2026-04-17 03:41 | 18.77614 | -98.77102 | 21138 ft | 316 kts | 164° |
| 2026-04-17 03:42 | 18.75486 | -98.76517 | 21134 ft | 314 kts | 175° |
| 2026-04-17 03:42 | 18.73328 | -98.76717 | 21137 ft | 313 kts | 199° |
| 2026-04-17 03:42 | 18.71436 | -98.77815 | 21128 ft | 312 kts | 223° |
| 2026-04-17 03:42 | 18.70140 | -98.79620 | 21132 ft | 310 kts | 247° |
| 2026-04-17 03:43 | 18.69613 | -98.81806 | 21123 ft | 309 kts | 263° |
| 2026-04-17 03:43 | 18.69351 | -98.84056 | 21111 ft | 309 kts | 264° |
| 2026-04-17 03:43 | 18.69098 | -98.86303 | 21103 ft | 308 kts | 264° |
| 2026-04-17 03:43 | 18.68845 | -98.88553 | 21099 ft | 308 kts | 264° |
| 2026-04-17 03:44 | 18.68596 | -98.90770 | 21093 ft | 309 kts | 264° |
| 2026-04-17 03:44 | 18.68345 | -98.93015 | 21081 ft | 308 kts | 264° |
| 2026-04-17 03:44 | 18.68092 | -98.95290 | 21068 ft | 308 kts | 264° |
| 2026-04-17 03:44 | 18.67847 | -98.97504 | 21075 ft | 308 kts | 264° |
| 2026-04-17 03:45 | 18.67598 | -98.99754 | 21066 ft | 308 kts | 264° |
| 2026-04-17 03:45 | 18.67346 | -99.02029 | 21062 ft | 308 kts | 264° |
| 2026-04-17 03:45 | 18.67101 | -99.04247 | 21054 ft | 308 kts | 264° |
| 2026-04-17 03:45 | 18.66854 | -99.06497 | 21055 ft | 308 kts | 264° |
| 2026-04-17 03:46 | 18.66608 | -99.08743 | 21050 ft | 308 kts | 264° |
| 2026-04-17 03:46 | 18.66363 | -99.10990 | 21050 ft | 308 kts | 264° |
| 2026-04-17 03:46 | 18.66118 | -99.13232 | 21053 ft | 308 kts | 264° |
| 2026-04-17 03:46 | 18.65874 | -99.15484 | 21053 ft | 308 kts | 264° |
| 2026-04-17 03:47 | 18.65630 | -99.17731 | 21046 ft | 308 kts | 264° |
| 2026-04-17 03:47 | 18.65388 | -99.19974 | 21046 ft | 308 kts | 264° |
| 2026-04-17 03:47 | 18.65147 | -99.22222 | 21045 ft | 308 kts | 264° |
| 2026-04-17 03:47 | 18.64906 | -99.24465 | 21044 ft | 308 kts | 264° |
| 2026-04-17 03:48 | 18.64669 | -99.26681 | 21046 ft | 307 kts | 264° |
| 2026-04-17 03:48 | 18.64432 | -99.28922 | 21055 ft | 309 kts | 264° |
| 2026-04-17 03:48 | 18.64190 | -99.31171 | 21055 ft | 309 kts | 264° |
| 2026-04-17 03:48 | 18.63947 | -99.33417 | 21058 ft | 308 kts | 264° |
| 2026-04-17 03:49 | 18.63706 | -99.35664 | 21064 ft | 308 kts | 264° |
| 2026-04-17 03:49 | 18.63466 | -99.37909 | 21065 ft | 308 kts | 264° |
| 2026-04-17 03:49 | 18.63226 | -99.40154 | 21068 ft | 308 kts | 264° |
| 2026-04-17 03:49 | 18.62986 | -99.42399 | 21071 ft | 308 kts | 264° |
| 2026-04-17 03:50 | 18.62791 | -99.44651 | 21070 ft | 308 kts | 272° |
| 2026-04-17 03:50 | 18.63192 | -99.46853 | 21008 ft | 308 kts | 294° |
| 2026-04-17 03:50 | 18.64389 | -99.48714 | 20761 ft | 308 kts | 317° |
| 2026-04-17 03:50 | 18.66202 | -99.49887 | 20511 ft | 307 kts | 342° |
| 2026-04-17 03:51 | 18.68299 | -99.50162 | 20262 ft | 306 kts | 6° |
| 2026-04-17 03:51 | 18.70313 | -99.49494 | 20011 ft | 306 kts | 31° |
| 2026-04-17 03:51 | 18.71940 | -99.48055 | 19771 ft | 306 kts | 45° |
| 2026-04-17 03:51 | 18.73421 | -99.46409 | 19529 ft | 314 kts | 46° |
| 2026-04-17 03:52 | 18.74948 | -99.44715 | 19273 ft | 319 kts | 45° |
| 2026-04-17 03:52 | 18.76502 | -99.43057 | 19020 ft | 315 kts | 44° |
| 2026-04-17 03:52 | 18.78053 | -99.41451 | 18773 ft | 311 kts | 43° |
| 2026-04-17 03:52 | 18.79608 | -99.39865 | 18522 ft | 311 kts | 43° |
| 2026-04-17 03:53 | 18.81167 | -99.38290 | 18264 ft | 309 kts | 43° |
| 2026-04-17 03:53 | 18.82718 | -99.36726 | 18021 ft | 308 kts | 43° |
| 2026-04-17 03:53 | 18.84245 | -99.35190 | 17783 ft | 306 kts | 43° |
| 2026-04-17 03:53 | 18.85779 | -99.33645 | 17526 ft | 306 kts | 43° |
| 2026-04-17 03:54 | 18.87310 | -99.32095 | 17268 ft | 302 kts | 43° |
| 2026-04-17 03:54 | 18.88828 | -99.30559 | 17024 ft | 302 kts | 43° |
| 2026-04-17 03:54 | 18.90350 | -99.29021 | 16770 ft | 300 kts | 43° |
| 2026-04-17 03:54 | 18.91850 | -99.27496 | 16520 ft | 299 kts | 43° |
| 2026-04-17 03:55 | 18.93352 | -99.25976 | 16265 ft | 297 kts | 43° |
| 2026-04-17 03:55 | 18.94841 | -99.24470 | 16016 ft | 296 kts | 43° |
| 2026-04-17 03:55 | 18.96329 | -99.22967 | 15764 ft | 295 kts | 43° |
| 2026-04-17 03:55 | 18.97788 | -99.21491 | 15512 ft | 293 kts | 43° |
| 2026-04-17 03:56 | 18.99261 | -99.20005 | 15264 ft | 293 kts | 43° |
| 2026-04-17 03:56 | 19.00723 | -99.18518 | 15015 ft | 290 kts | 43° |
| 2026-04-17 03:56 | 19.02172 | -99.17045 | 14764 ft | 288 kts | 43° |
| 2026-04-17 03:56 | 19.03618 | -99.15578 | 14514 ft | 287 kts | 43° |
| 2026-04-17 03:57 | 19.05058 | -99.14120 | 14263 ft | 286 kts | 43° |
| 2026-04-17 03:57 | 19.06498 | -99.12663 | 14011 ft | 284 kts | 43° |
| 2026-04-17 03:57 | 19.07918 | -99.11227 | 13837 ft | 281 kts | 43° |
| 2026-04-17 03:57 | 19.09308 | -99.09814 | 13832 ft | 269 kts | 43° |
| 2026-04-17 03:58 | 19.10611 | -99.08490 | 13848 ft | 253 kts | 43° |
| 2026-04-17 03:58 | 19.11901 | -99.07176 | 13853 ft | 260 kts | 43° |
| 2026-04-17 03:58 | 19.13199 | -99.05855 | 13861 ft | 257 kts | 43° |
| 2026-04-17 03:58 | 19.14479 | -99.04555 | 13877 ft | 258 kts | 43° |
| 2026-04-17 03:59 | 19.15776 | -99.03238 | 13888 ft | 259 kts | 43° |
| 2026-04-17 03:59 | 19.17132 | -99.01998 | 13916 ft | 257 kts | 30° |
| 2026-04-17 03:59 | 19.18833 | -99.01447 | 13901 ft | 260 kts | 2° |
| 2026-04-17 03:59 | 19.20593 | -99.01808 | 13704 ft | 259 kts | 334° |
| 2026-04-17 04:00 | 19.21949 | -99.02995 | 13465 ft | 249 kts | 305° |
| 2026-04-17 04:00 | 19.22740 | -99.04548 | 13291 ft | 231 kts | 297° |
| 2026-04-17 04:00 | 19.23479 | -99.06046 | 12731 ft | 229 kts | 303° |
| 2026-04-17 04:00 | 19.24371 | -99.07446 | 12513 ft | 230 kts | 306° |
| 2026-04-17 04:01 | 19.25221 | -99.08875 | 12322 ft | 226 kts | 305° |
| 2026-04-17 04:01 | 19.26105 | -99.10220 | 11933 ft | 219 kts | 309° |
| 2026-04-17 04:01 | 19.27005 | -99.11487 | 11450 ft | 210 kts | 310° |
| 2026-04-17 04:01 | 19.27922 | -99.12741 | 11192 ft | 220 kts | 310° |
| 2026-04-17 04:02 | 19.28856 | -99.14017 | 10873 ft | 217 kts | 309° |
| 2026-04-17 04:02 | 19.29766 | -99.15265 | 10607 ft | 215 kts | 309° |
| 2026-04-17 04:02 | 19.30630 | -99.16460 | 10467 ft | 193 kts | 309° |
| 2026-04-17 04:02 | 19.31420 | -99.17558 | 10109 ft | 186 kts | 309° |
| 2026-04-17 04:03 | 19.32314 | -99.18572 | 9967 ft | 189 kts | 324° |
| 2026-04-17 04:03 | 19.33464 | -99.19200 | 9748 ft | 182 kts | 345° |
| 2026-04-17 04:03 | 19.34675 | -99.19373 | 9424 ft | 172 kts | 2° |
| 2026-04-17 04:03 | 19.35839 | -99.19127 | 9025 ft | 171 kts | 22° |
| 2026-04-17 04:04 | 19.36873 | -99.18489 | 8923 ft | 173 kts | 40° |
| 2026-04-17 04:04 | 19.37642 | -99.17587 | 8915 ft | 159 kts | 55° |
| 2026-04-17 04:04 | 19.38038 | -99.16922 | 8908 ft | 163 kts | 59° |
| 2026-04-17 04:04 | 19.38604 | -99.15883 | 8909 ft | 164 kts | 60° |
| 2026-04-17 04:05 | 19.39189 | -99.14843 | 8777 ft | 164 kts | 59° |
| 2026-04-17 04:05 | 19.39754 | -99.13835 | 8541 ft | 154 kts | 58° |
| 2026-04-17 04:05 | 19.40294 | -99.12873 | 8339 ft | 152 kts | 55° |
| 2026-04-17 04:05 | 19.40838 | -99.11904 | 8131 ft | 155 kts | 56° |
| 2026-04-17 04:06 | 19.41400 | -99.10902 | 7925 ft | 159 kts | 56° |
| 2026-04-17 04:06 | 19.41956 | -99.09908 | 7714 ft | 153 kts | 57° |
| 2026-04-17 04:06 | 19.42482 | -99.08969 | 7504 ft | 143 kts | 56° |
| 2026-04-17 04:06 | 19.42985 | -99.08076 | 7328 ft | 140 kts | 57° |
| 2026-04-17 04:07 | 19.43418 | -99.07301 | 7302 ft | 95 kts | 59° |
| 2026-04-17 04:07 | 19.43674 | -99.06857 | 7302 ft | 58 kts | 57° |
| 2026-04-17 04:07 | 19.43851 | -99.06570 | 7302 ft | 38 kts | 48° |
| 2026-04-17 04:07 | 19.44042 | -99.06434 | 7302 ft | 27 kts | 27° |
| 2026-04-17 04:08 | 19.44144 | -99.06379 | 7302 ft | 2 kts | 27° |
| 2026-04-17 04:08 | 19.44147 | -99.06377 | 7302 ft | 0 kts | 27° |
| 2026-04-17 04:08 | 19.44148 | -99.06377 | 7302 ft | 1 kts | 27° |
| 2026-04-17 04:09 | 19.44162 | -99.06369 | 7302 ft | 4 kts | 28° |
| 2026-04-17 04:09 | 19.44205 | -99.06345 | 7302 ft | 13 kts | 28° |
| 2026-04-17 04:09 | 19.44317 | -99.06291 | 7302 ft | 20 kts | 21° |
| 2026-04-17 04:09 | 19.44398 | -99.06317 | 7302 ft | 8 kts | 311° |
| 2026-04-17 04:10 | 19.44393 | -99.06372 | 7302 ft | 7 kts | 239° |
| 2026-04-17 04:10 | 19.44393 | -99.06373 | 7302 ft | 0 kts | 239° |
| 2026-04-17 04:11 | 19.44391 | -99.06377 | 7302 ft | 2 kts | 239° |
| 2026-04-17 04:11 | 19.44330 | -99.06484 | 7302 ft | 23 kts | 239° |
| 2026-04-17 04:11 | 19.44242 | -99.06639 | 7302 ft | 26 kts | 239° |
| 2026-04-17 04:11 | 19.44148 | -99.06808 | 7302 ft | 27 kts | 239° |
| 2026-04-17 04:12 | 19.44060 | -99.06968 | 7302 ft | 24 kts | 240° |
| 2026-04-17 04:12 | 19.43971 | -99.07125 | 7302 ft | 24 kts | 238° |
| 2026-04-17 04:12 | 19.43886 | -99.07272 | 7302 ft | 21 kts | 240° |
| 2026-04-17 04:12 | 19.43813 | -99.07411 | 7302 ft | 22 kts | 234° |
| 2026-04-17 04:13 | 19.43729 | -99.07554 | 7302 ft | 24 kts | 240° |
| 2026-04-17 04:13 | 19.43641 | -99.07709 | 7302 ft | 25 kts | 239° |
| 2026-04-17 04:13 | 19.43549 | -99.07874 | 7302 ft | 27 kts | 239° |
| 2026-04-17 04:13 | 19.43468 | -99.08015 | 7302 ft | 8 kts | 238° |
| 2026-04-17 04:14 | 19.43464 | -99.08024 | 7302 ft | 3 kts | 244° |
| 2026-04-17 04:14 | 19.43458 | -99.08055 | 7302 ft | 5 kts | 277° |
| 2026-04-17 04:14 | 19.43487 | -99.08090 | 7302 ft | 8 kts | 326° |
| 2026-04-17 04:14 | 19.43522 | -99.08113 | 7302 ft | 0 kts | 328° |